createdAt,value
2022-08-03T00:00:27.531Z,17.25
2022-08-03T00:03:05.502Z,16.33
2022-08-03T00:05:32.562Z,14.13
2022-08-03T00:08:01.101Z,15.20
2022-08-03T00:10:28.696Z,15.98
2022-08-03T00:12:55.806Z,14.57
2022-08-03T00:15:23.254Z,15.18
2022-08-03T00:17:52.322Z,17.42
2022-08-03T00:20:24.429Z,15.20
2022-08-03T00:22:52.169Z,13.85
2022-08-03T00:25:19.191Z,14.10
2022-08-03T00:27:46.218Z,15.13
2022-08-03T00:30:16.991Z,15.50
2022-08-03T00:32:45.354Z,12.18
2022-08-03T00:35:29.975Z,12.30
2022-08-03T00:38:00.435Z,13.15
2022-08-03T00:40:28.236Z,12.57
2022-08-03T00:42:56.394Z,9.77
2022-08-03T00:45:26.800Z,14.05
2022-08-03T00:47:54.408Z,12.55
2022-08-03T00:50:23.940Z,11.90
2022-08-03T00:52:58.264Z,19.83
2022-08-03T00:55:26.149Z,12.25
2022-08-03T00:57:54.468Z,12.48
2022-08-03T01:00:25.564Z,12.10
2022-08-03T01:02:53.419Z,14.52
2022-08-03T01:05:22.091Z,12.73
2022-08-03T01:08:08.154Z,14.77
2022-08-03T01:10:44.636Z,12.63
2022-08-03T01:14:04.233Z,12.32
2022-08-03T01:16:37.524Z,10.48
2022-08-03T01:19:25.595Z,13.98
2022-08-03T01:22:26.675Z,16.25
2022-08-03T01:24:59.616Z,12.45
2022-08-03T01:27:43.067Z,13.68
2022-08-03T01:30:12.035Z,14.05
2022-08-03T01:32:58.563Z,12.35
2022-08-03T01:35:47.281Z,17.33
2022-08-03T01:38:35.040Z,14.68
2022-08-03T01:41:10.864Z,13.27
2022-08-03T01:43:55.298Z,14.38
2022-08-03T01:46:29.066Z,13.43
2022-08-03T01:48:57.929Z,12.43
2022-08-03T01:51:25.069Z,13.57
2022-08-03T01:54:13.507Z,14.60
2022-08-03T01:56:42.822Z,15.68
2022-08-03T01:59:12.385Z,14.43
2022-08-03T02:02:28.443Z,14.75
2022-08-03T02:04:29.259Z,12.32
2022-08-03T02:07:01.491Z,14.23
2022-08-03T02:09:31.586Z,12.40
2022-08-03T02:12:02.263Z,14.85
2022-08-03T02:14:30.834Z,12.65
2022-08-03T02:16:58.524Z,14.70
2022-08-03T02:19:29.484Z,12.95
2022-08-03T02:22:01.339Z,12.40
2022-08-03T02:24:30.020Z,12.23
2022-08-03T02:26:58.749Z,12.80
2022-08-03T02:29:39.213Z,14.15
2022-08-03T02:32:14.385Z,13.05
2022-08-03T02:34:44.568Z,11.65
2022-08-03T02:37:13.384Z,10.60
2022-08-03T02:39:41.414Z,9.45
2022-08-03T02:42:13.455Z,10.48
2022-08-03T02:44:41.661Z,10.57
2022-08-03T02:47:12.012Z,12.20
2022-08-03T02:49:50.494Z,15.02
2022-08-03T02:52:21.673Z,11.05
2022-08-03T02:54:52.323Z,9.27
2022-08-03T02:57:21.684Z,10.85
2022-08-03T02:59:49.834Z,9.73
2022-08-03T03:02:18.246Z,9.40
2022-08-03T03:05:53.458Z,9.20
2022-08-03T03:07:45.405Z,12.30
2022-08-03T03:10:22.466Z,11.20
2022-08-03T03:12:52.303Z,11.55
2022-08-03T03:15:19.406Z,11.30
2022-08-03T03:17:49.424Z,11.15
2022-08-03T03:20:29.690Z,9.10
2022-08-03T03:23:01.602Z,12.13
2022-08-03T03:25:31.737Z,12.60
2022-08-03T03:28:01.249Z,10.85
2022-08-03T03:30:29.952Z,13.07
2022-08-03T03:32:58.580Z,11.65
2022-08-03T03:35:27.210Z,8.68
2022-08-03T03:37:54.455Z,12.07
2022-08-03T03:40:22.409Z,10.57
2022-08-03T03:42:50.593Z,11.48
2022-08-03T03:45:18.739Z,11.50
2022-08-03T03:47:46.488Z,9.75
2022-08-03T03:50:17.821Z,12.23
2022-08-03T03:52:44.950Z,11.68
2022-08-03T03:55:16.426Z,10.85
2022-08-03T03:57:43.939Z,13.38
2022-08-03T04:00:13.236Z,10.90
2022-08-03T04:02:40.570Z,12.10
2022-08-03T04:05:09.048Z,11.27
2022-08-03T04:07:58.959Z,11.18
2022-08-03T04:10:28.654Z,11.15
2022-08-03T04:12:59.135Z,10.27
2022-08-03T04:15:29.387Z,13.02
2022-08-03T04:17:59.095Z,9.10
2022-08-03T04:20:32.843Z,11.40
2022-08-03T04:23:02.692Z,11.02
2022-08-03T04:25:34.115Z,10.82
2022-08-03T04:28:29.845Z,10.43
2022-08-03T04:30:53.079Z,10.30
2022-08-03T04:33:22.218Z,8.32
2022-08-03T04:36:01.832Z,10.57
2022-08-03T04:38:38.986Z,10.07
2022-08-03T04:41:08.713Z,10.80
2022-08-03T04:43:38.688Z,9.13
2022-08-03T04:46:07.296Z,11.07
2022-08-03T04:48:35.027Z,10.63
2022-08-03T04:51:03.133Z,9.30
2022-08-03T04:53:30.835Z,8.15
2022-08-03T04:56:07.327Z,12.27
2022-08-03T04:58:34.833Z,11.07
2022-08-03T05:01:02.089Z,10.18
2022-08-03T05:03:29.176Z,8.20
2022-08-03T05:06:01.723Z,10.02
2022-08-03T05:08:29.388Z,9.05
2022-08-03T05:10:59.035Z,11.73
2022-08-03T05:13:26.691Z,7.97
2022-08-03T05:15:54.217Z,10.20
2022-08-03T05:18:21.306Z,8.70
2022-08-03T05:20:48.596Z,9.57
2022-08-03T05:23:15.749Z,11.88
2022-08-03T05:25:49.635Z,12.30
2022-08-03T05:28:17.740Z,8.48
2022-08-03T05:30:44.763Z,9.73
2022-08-03T05:33:11.842Z,8.27
2022-08-03T05:36:01.565Z,9.60
2022-08-03T05:38:28.901Z,10.20
2022-08-03T05:41:21.125Z,9.27
2022-08-03T05:43:54.638Z,5.88
2022-08-03T05:46:22.938Z,7.60
2022-08-03T05:48:50.543Z,7.18
2022-08-03T05:51:17.763Z,8.82
2022-08-03T05:53:46.376Z,7.97
2022-08-03T05:56:16.028Z,10.07
2022-08-03T05:58:46.158Z,6.82
2022-08-03T06:01:14.557Z,9.60
2022-08-03T06:03:41.657Z,6.88
2022-08-03T06:06:08.962Z,7.18
2022-08-03T06:08:36.469Z,5.55
2022-08-03T06:11:04.359Z,4.63
2022-08-03T06:13:31.635Z,5.47
2022-08-03T06:15:59.128Z,6.30
2022-08-03T06:18:26.319Z,5.85
2022-08-03T06:20:54.091Z,5.22
2022-08-03T06:23:25.328Z,5.72
2022-08-03T06:26:09.991Z,9.05
2022-08-03T06:28:52.831Z,7.13
2022-08-03T06:31:22.587Z,5.37
2022-08-03T06:34:34.949Z,7.65
2022-08-03T06:36:37.178Z,6.30
2022-08-03T06:39:04.917Z,8.20
2022-08-03T06:41:38.011Z,6.28
2022-08-03T06:44:05.985Z,6.80
2022-08-03T06:46:33.018Z,5.20
2022-08-03T06:49:00.021Z,11.10
2022-08-03T06:52:04.415Z,7.40
2022-08-03T06:54:14.743Z,5.35
2022-08-03T06:56:42.541Z,5.18
2022-08-03T06:59:09.606Z,5.35
2022-08-03T07:01:57.086Z,7.10
2022-08-03T07:04:24.092Z,8.80
2022-08-03T07:06:51.147Z,6.72
2022-08-03T07:09:18.573Z,5.95
2022-08-03T07:11:45.610Z,7.05
2022-08-03T07:14:12.602Z,3.53
2022-08-03T07:16:40.120Z,5.28
2022-08-03T07:19:07.103Z,3.78
2022-08-03T07:21:34.267Z,3.63
2022-08-03T07:24:01.736Z,5.97
2022-08-03T07:26:28.805Z,6.32
2022-08-03T07:28:55.807Z,3.95
2022-08-03T07:31:23.295Z,5.20
2022-08-03T07:33:50.330Z,3.35
2022-08-03T07:36:17.332Z,3.05
2022-08-03T07:38:44.766Z,5.55
2022-08-03T07:41:11.792Z,4.30
2022-08-03T07:43:38.783Z,3.78
2022-08-03T07:46:06.259Z,5.00
2022-08-03T07:48:33.312Z,2.55
2022-08-03T07:51:00.383Z,3.83
2022-08-03T07:53:28.142Z,2.70
2022-08-03T07:55:55.169Z,4.18
2022-08-03T07:58:24.179Z,4.10
2022-08-03T08:00:52.106Z,3.83
2022-08-03T08:03:19.263Z,3.33
2022-08-03T08:05:46.263Z,4.30
2022-08-03T08:08:13.882Z,1.98
2022-08-03T08:10:40.889Z,3.25
2022-08-03T08:13:07.935Z,2.92
2022-08-03T08:15:35.442Z,4.13
2022-08-03T08:18:09.962Z,2.88
2022-08-03T08:20:38.138Z,2.88
2022-08-03T08:23:10.266Z,2.60
2022-08-03T08:25:55.275Z,3.50
2022-08-03T08:28:32.249Z,6.57
2022-08-03T08:31:02.108Z,6.32
2022-08-03T08:33:48.026Z,4.03
2022-08-03T08:36:17.036Z,3.55
2022-08-03T08:38:44.585Z,3.58
2022-08-03T08:41:13.240Z,4.63
2022-08-03T08:43:41.098Z,4.95
2022-08-03T08:46:12.006Z,5.90
2022-08-03T08:48:42.107Z,6.18
2022-08-03T08:51:11.475Z,3.53
2022-08-03T08:53:41.525Z,3.17
2022-08-03T08:56:10.946Z,3.88
2022-08-03T08:58:44.422Z,3.58
2022-08-03T09:01:11.709Z,6.95
2022-08-03T09:03:38.957Z,4.30
2022-08-03T09:06:06.809Z,4.68
2022-08-03T09:08:34.013Z,4.05
2022-08-03T09:11:01.044Z,3.05
2022-08-03T09:13:28.810Z,5.45
2022-08-03T09:16:15.981Z,3.63
2022-08-03T09:18:49.538Z,4.90
2022-08-03T09:21:34.504Z,3.92
2022-08-03T09:24:06.321Z,2.40
2022-08-03T09:26:37.258Z,3.05
2022-08-03T09:29:14.553Z,2.67
2022-08-03T09:31:47.055Z,5.90
2022-08-03T09:34:16.928Z,4.00
2022-08-03T09:36:51.393Z,5.43
2022-08-03T09:39:41.802Z,3.75
2022-08-03T09:42:14.737Z,2.30
2022-08-03T09:44:48.108Z,3.55
2022-08-03T09:50:07.056Z,3.03
2022-08-03T09:52:49.772Z,4.93
2022-08-03T09:56:30.411Z,7.82
2022-08-03T09:58:08.043Z,4.53
2022-08-03T10:00:53.501Z,4.05
2022-08-03T10:03:21.786Z,3.60
2022-08-03T10:05:49.110Z,5.47
2022-08-03T10:08:17.306Z,3.78
2022-08-03T10:10:46.005Z,5.32
2022-08-03T10:13:20.120Z,3.53
2022-08-03T10:16:22.327Z,3.22
2022-08-03T10:18:34.835Z,3.70
2022-08-03T10:21:07.817Z,5.70
2022-08-03T10:23:37.841Z,4.57
2022-08-03T10:26:08.192Z,3.00
2022-08-03T10:28:45.039Z,3.22
2022-08-03T10:31:14.519Z,3.47
2022-08-03T10:33:52.779Z,5.50
2022-08-03T10:36:24.365Z,4.32
2022-08-03T10:38:53.547Z,2.60
2022-08-03T10:41:22.423Z,2.97
2022-08-03T10:44:05.415Z,5.22
2022-08-03T10:46:34.363Z,2.47
2022-08-03T10:49:02.780Z,3.80
2022-08-03T10:51:30.310Z,4.50
2022-08-03T10:53:57.914Z,2.75
2022-08-03T10:56:49.430Z,3.35
2022-08-03T10:59:27.798Z,4.00
2022-08-03T11:01:59.964Z,2.83
2022-08-03T11:04:30.221Z,5.03
2022-08-03T11:07:25.153Z,4.13
2022-08-03T11:09:54.394Z,4.65
2022-08-03T11:12:28.352Z,3.80
2022-08-03T11:15:01.688Z,5.18
2022-08-03T11:17:29.342Z,2.90
2022-08-03T11:19:57.926Z,2.40
2022-08-03T11:22:26.289Z,2.90
2022-08-03T11:24:53.627Z,5.00
2022-08-03T11:27:23.159Z,4.55
2022-08-03T11:30:14.847Z,3.88
2022-08-03T11:32:46.588Z,4.55
2022-08-03T11:35:16.725Z,4.05
2022-08-03T11:38:05.753Z,3.45
2022-08-03T11:40:38.220Z,3.25
2022-08-03T11:43:31.920Z,5.45
2022-08-03T11:46:02.215Z,3.63
2022-08-03T11:48:37.438Z,5.18
2022-08-03T11:51:08.356Z,5.78
2022-08-03T11:53:41.722Z,2.75
2022-08-03T11:56:12.913Z,4.22
2022-08-03T11:59:13.217Z,2.80
2022-08-03T12:01:35.128Z,3.58
2022-08-03T12:04:06.459Z,3.97
2022-08-03T12:06:33.654Z,5.65
2022-08-03T12:09:00.779Z,5.78
2022-08-03T12:11:28.213Z,6.55
2022-08-03T12:14:26.992Z,5.20
2022-08-03T12:16:47.666Z,3.30
2022-08-03T12:19:15.224Z,3.65
2022-08-03T12:21:57.411Z,4.10
2022-08-03T12:26:58.729Z,4.80
2022-08-03T12:29:27.652Z,5.15
2022-08-03T12:31:55.952Z,6.82
2022-08-03T12:34:23.503Z,4.43
2022-08-03T12:36:53.665Z,5.68
2022-08-03T12:39:24.717Z,4.32
2022-08-03T12:41:56.739Z,4.63
2022-08-03T12:44:31.721Z,6.70
2022-08-03T12:46:59.835Z,3.40
2022-08-03T12:49:27.208Z,3.22
2022-08-03T12:52:00.795Z,3.17
2022-08-03T12:54:31.630Z,4.72
2022-08-03T12:57:07.357Z,4.68
2022-08-03T12:59:40.713Z,4.80
2022-08-03T13:02:15.739Z,3.40
2022-08-03T13:04:46.611Z,3.33
2022-08-03T13:07:14.879Z,4.55
2022-08-03T13:09:44.323Z,6.05
2022-08-03T13:12:16.793Z,5.53
2022-08-03T13:14:45.911Z,4.47
2022-08-03T13:17:13.680Z,3.65
2022-08-03T13:19:40.889Z,4.70
2022-08-03T13:22:21.055Z,3.70
2022-08-03T13:24:51.232Z,5.50
2022-08-03T13:28:01.070Z,2.95
2022-08-03T13:30:08.163Z,5.28
2022-08-03T13:32:35.583Z,5.25
2022-08-03T13:35:03.600Z,3.58
2022-08-03T13:37:31.491Z,4.85
2022-08-03T13:40:02.530Z,4.88
2022-08-03T13:42:33.849Z,4.95
2022-08-03T13:45:01.418Z,3.92
2022-08-03T13:47:28.815Z,4.28
2022-08-03T13:50:01.878Z,3.05
2022-08-03T13:52:33.967Z,5.38
2022-08-03T13:55:03.192Z,4.97
2022-08-03T13:58:02.187Z,4.95
2022-08-03T14:00:27.434Z,3.45
2022-08-03T14:03:06.494Z,4.03
2022-08-03T14:05:35.573Z,3.65
2022-08-03T14:08:04.196Z,3.03
2022-08-03T14:10:33.437Z,5.38
2022-08-03T14:13:01.253Z,4.60
2022-08-03T14:15:28.354Z,7.00
2022-08-03T14:17:56.177Z,3.33
2022-08-03T14:20:37.106Z,3.42
2022-08-03T14:23:06.914Z,3.53
2022-08-03T14:25:43.678Z,8.10
2022-08-03T14:28:18.853Z,4.72
2022-08-03T14:30:46.369Z,4.90
2022-08-03T14:33:13.343Z,5.63
2022-08-03T14:35:40.531Z,5.47
2022-08-03T14:38:08.190Z,5.57
2022-08-03T14:40:35.477Z,6.65
2022-08-03T14:43:02.561Z,7.45
2022-08-03T14:45:31.110Z,5.88
2022-08-03T14:50:30.725Z,3.75
2022-08-03T14:50:51.042Z,10.90
2022-08-03T14:53:19.795Z,4.88
2022-08-03T14:55:50.447Z,7.13
2022-08-03T14:58:23.051Z,5.03
2022-08-03T15:00:52.027Z,3.63
2022-08-03T15:03:20.975Z,5.43
2022-08-03T15:05:48.587Z,3.45
2022-08-03T15:08:16.239Z,4.55
2022-08-03T15:10:44.370Z,6.30
2022-08-03T15:13:15.410Z,6.53
2022-08-03T15:15:42.824Z,4.93
2022-08-03T15:18:09.949Z,5.50
2022-08-03T15:20:44.878Z,5.97
2022-08-03T15:23:15.009Z,4.88
2022-08-03T15:26:28.508Z,4.47
2022-08-03T15:28:30.944Z,7.95
2022-08-03T15:30:58.181Z,5.32
2022-08-03T15:33:25.178Z,3.03
2022-08-03T15:35:52.534Z,6.30
2022-08-03T15:38:19.597Z,5.45
2022-08-03T15:40:46.625Z,5.68
2022-08-03T15:43:14.131Z,6.07
2022-08-03T15:45:41.984Z,3.15
2022-08-03T15:48:09.220Z,4.30
2022-08-03T15:50:36.833Z,8.10
2022-08-03T15:53:04.257Z,10.88
2022-08-03T15:55:31.658Z,8.20
2022-08-03T15:59:10.193Z,5.75
2022-08-03T16:00:46.176Z,5.30
2022-08-03T16:03:13.686Z,7.00
2022-08-03T16:05:40.776Z,3.78
2022-08-03T16:08:13.259Z,7.10
2022-08-03T16:10:41.846Z,7.18
2022-08-03T16:13:08.972Z,7.50
2022-08-03T16:15:37.483Z,6.15
2022-08-03T16:18:07.098Z,5.38
2022-08-03T16:20:35.278Z,5.47
2022-08-03T16:23:10.666Z,4.60
2022-08-03T16:25:40.519Z,4.50
2022-08-03T16:28:13.398Z,4.00
2022-08-03T16:30:44.120Z,5.70
2022-08-03T16:33:16.840Z,5.40
2022-08-03T16:35:46.820Z,8.00
2022-08-03T16:38:18.579Z,4.15
2022-08-03T16:40:48.386Z,4.18
2022-08-03T16:43:18.468Z,6.72
2022-08-03T16:45:47.377Z,5.95
2022-08-03T16:48:15.998Z,5.32
2022-08-03T16:50:43.199Z,8.52
2022-08-03T16:53:16.379Z,4.38
2022-08-03T16:55:53.999Z,5.65
2022-08-03T16:58:41.674Z,4.32
2022-08-03T17:01:22.230Z,6.20
2022-08-03T17:04:03.025Z,6.13
2022-08-03T17:06:44.759Z,8.73
2022-08-03T17:09:14.785Z,6.22
2022-08-03T17:11:49.260Z,6.60
2022-08-03T17:14:21.902Z,5.78
2022-08-03T17:16:53.860Z,5.90
2022-08-03T17:19:23.638Z,9.53
2022-08-03T17:22:04.350Z,5.93
2022-08-03T17:24:41.137Z,5.72
2022-08-03T17:28:42.443Z,5.75
2022-08-03T17:30:05.139Z,4.80
2022-08-03T17:32:42.589Z,5.53
2022-08-03T17:35:10.711Z,6.00
2022-08-03T17:37:57.698Z,8.65
2022-08-03T17:40:25.745Z,6.43
2022-08-03T17:42:54.457Z,6.65
2022-08-03T17:45:21.448Z,6.40
2022-08-03T17:47:57.719Z,8.25
2022-08-03T17:50:35.731Z,7.93
2022-08-03T17:53:23.535Z,7.25
2022-08-03T17:56:42.413Z,8.40
2022-08-03T17:59:50.679Z,4.45
2022-08-03T18:02:34.910Z,7.30
2022-08-03T18:05:16.296Z,7.43
2022-08-03T18:07:50.153Z,7.00
2022-08-03T18:10:33.778Z,4.25
2022-08-03T18:13:10.607Z,7.85
2022-08-03T18:15:45.543Z,7.28
2022-08-03T18:18:15.818Z,11.48
2022-08-03T18:20:45.743Z,6.88
2022-08-03T18:23:20.359Z,9.95
2022-08-03T18:25:58.067Z,8.98
2022-08-03T18:28:28.040Z,10.35
2022-08-03T18:30:56.339Z,8.45
2022-08-03T18:34:20.337Z,10.02
2022-08-03T18:36:17.282Z,10.45
2022-08-03T18:38:46.861Z,9.30
2022-08-03T18:41:19.634Z,10.13
2022-08-03T18:44:06.731Z,16.38
2022-08-03T18:47:07.517Z,16.65
2022-08-03T18:50:13.014Z,13.88
2022-08-03T18:52:53.478Z,10.38
2022-08-03T18:55:33.643Z,9.07
2022-08-03T18:58:15.706Z,11.27
2022-08-03T19:01:15.292Z,8.18
2022-08-03T19:04:04.181Z,8.75
2022-08-03T19:06:33.608Z,9.35
2022-08-03T19:09:05.999Z,10.18
2022-08-03T19:14:34.722Z,12.15
2022-08-03T19:17:12.177Z,9.50
2022-08-03T19:19:45.029Z,10.70
2022-08-03T19:22:16.096Z,12.15
2022-08-03T19:24:46.305Z,18.48
2022-08-03T19:27:14.202Z,14.25
2022-08-03T19:29:59.936Z,10.77
2022-08-03T19:32:30.721Z,10.40
2022-08-03T19:35:00.310Z,9.27
2022-08-03T19:37:39.810Z,11.02
2022-08-03T19:40:12.225Z,10.93
2022-08-03T19:42:44.562Z,10.88
2022-08-03T19:45:21.359Z,7.57
2022-08-03T19:47:52.700Z,9.98
2022-08-03T19:50:20.989Z,10.80
2022-08-03T19:52:50.060Z,9.45
2022-08-03T19:55:18.383Z,11.10
2022-08-03T19:57:49.182Z,8.32
2022-08-03T20:00:17.938Z,10.10
2022-08-03T20:02:45.610Z,9.98
2022-08-03T20:05:15.345Z,10.48
2022-08-03T20:07:47.873Z,13.82
2022-08-03T20:10:17.854Z,10.13
2022-08-03T20:12:47.187Z,9.38
2022-08-03T20:15:22.174Z,9.13
2022-08-03T20:17:56.771Z,8.63
2022-08-03T20:20:30.565Z,9.98
2022-08-03T20:22:59.549Z,9.90
2022-08-03T20:25:39.447Z,11.18
2022-08-03T20:28:31.686Z,14.73
2022-08-03T20:30:59.876Z,16.17
2022-08-03T20:33:46.326Z,15.57
2022-08-03T20:39:07.935Z,12.90
2022-08-03T20:41:37.593Z,12.25
2022-08-03T20:44:06.203Z,12.93
2022-08-03T20:46:50.365Z,10.10
2022-08-03T20:49:23.037Z,10.52
2022-08-03T20:51:53.238Z,12.75
2022-08-03T20:54:30.891Z,19.70
2022-08-03T20:57:00.556Z,11.00
2022-08-03T20:59:38.516Z,13.30
2022-08-03T21:02:19.575Z,12.32
2022-08-03T21:04:56.654Z,13.93
2022-08-03T21:07:25.531Z,13.35
2022-08-03T21:10:15.571Z,11.05
2022-08-03T21:13:07.170Z,13.23
2022-08-03T21:13:17.082Z,13.82
2022-08-03T21:16:04.790Z,10.13
2022-08-03T21:18:45.696Z,11.55
2022-08-03T21:21:16.566Z,13.13
2022-08-03T21:23:48.135Z,15.20
2022-08-03T21:26:18.100Z,10.25
2022-08-03T21:28:47.605Z,10.75
2022-08-03T21:31:24.543Z,9.90
2022-08-03T21:33:55.818Z,12.25
2022-08-03T21:36:23.426Z,10.20
2022-08-03T21:38:55.767Z,9.02
2022-08-03T21:41:30.102Z,10.73
2022-08-03T21:43:58.347Z,9.80
2022-08-03T21:46:29.518Z,7.40
2022-08-03T21:50:05.405Z,9.75
2022-08-03T21:51:49.807Z,12.57
2022-08-03T21:54:19.042Z,9.00
2022-08-03T21:56:47.966Z,12.27
2022-08-03T21:59:19.839Z,10.88
2022-08-03T22:01:48.944Z,11.43
2022-08-03T22:04:50.963Z,11.10
2022-08-03T22:07:08.105Z,9.48
2022-08-03T22:09:36.443Z,13.73
2022-08-03T22:12:04.526Z,11.10
2022-08-03T22:14:34.488Z,11.07
2022-08-03T22:17:06.188Z,10.32
2022-08-03T22:19:33.559Z,13.95
2022-08-03T22:22:01.869Z,9.35
2022-08-03T22:24:31.872Z,9.98
2022-08-03T22:27:02.564Z,10.48
2022-08-03T22:29:31.377Z,11.30
2022-08-03T22:31:59.488Z,9.48
2022-08-03T22:34:27.323Z,8.80
2022-08-03T22:36:57.266Z,10.48
2022-08-03T22:41:57.717Z,9.55
2022-08-03T22:44:25.911Z,10.45
2022-08-03T22:46:53.812Z,12.57
2022-08-03T22:49:22.202Z,8.93
2022-08-03T22:51:51.914Z,9.52
2022-08-03T22:54:19.819Z,10.15
2022-08-03T22:56:47.608Z,11.90
2022-08-03T22:59:40.145Z,10.45
2022-08-03T23:02:20.614Z,11.38
2022-08-03T23:04:54.968Z,7.65
2022-08-03T23:07:36.956Z,7.35
2022-08-03T23:10:12.593Z,15.00
2022-08-03T23:12:42.313Z,14.07
2022-08-03T23:15:12.045Z,9.88
2022-08-03T23:17:58.236Z,10.27
2022-08-03T23:20:29.111Z,9.57
2022-08-03T23:22:56.979Z,9.45
2022-08-03T23:25:24.471Z,8.30
2022-08-03T23:28:04.934Z,9.98
2022-08-03T23:30:37.172Z,13.02
2022-08-03T23:33:05.135Z,10.57
2022-08-03T23:36:27.860Z,11.68
2022-08-03T23:38:22.152Z,10.35
2022-08-03T23:40:51.299Z,10.25
2022-08-03T23:43:45.058Z,11.68
2022-08-03T23:46:08.325Z,12.82
2022-08-03T23:48:35.331Z,11.63
2022-08-03T23:51:28.370Z,10.00
2022-08-03T23:54:06.281Z,12.60
2022-08-03T23:56:39.717Z,14.55
2022-08-03T23:59:21.958Z,16.40
